Time;durP1;ratioP1;P1;durP2;ratioP2;P2;SDS_P1;SDS_P2;PMS_P1;PMS_P2;Temp;Humidity;BMP_temperature;BMP_pressure;BME280_temperature;BME280_humidity;BME280_pressure;Samples;Min_cycle;Max_cycle;Signal;HPM_P1;HPM_P2
2021/01/03 00:03:47;;;;;;;109.43;43.33;;;;;3.00;100955.00;;;;10423981;28;20592;-76
2021/01/03 00:08:50;;;;;;;94.83;39.60;;;;;3.00;100946.00;;;;10440603;28;20194;-76
2021/01/03 00:13:52;;;;;;;92.80;39.27;;;;;3.10;100955.00;;;;10439449;28;20218;-76
2021/01/03 00:18:53;;;;;;;85.43;39.20;;;;;3.10;100949.00;;;;10423028;28;20908;-76
2021/01/03 00:23:54;;;;;;;95.27;40.40;;;;;3.10;100954.00;;;;10422967;28;20609;-76
2021/01/03 00:28:56;;;;;;;97.20;41.37;;;;;3.10;100948.00;;;;10406425;28;20198;-75
2021/01/03 00:33:57;;;;;;;89.97;40.83;;;;;3.10;100939.00;;;;10456241;28;20217;-76
2021/01/03 00:38:59;;;;;;;93.63;40.43;;;;;3.20;100937.00;;;;10456063;28;20201;-76
2021/01/03 00:44:04;;;;;;;102.43;42.33;;;;;3.10;100943.00;;;;10455806;28;20242;-76
2021/01/03 00:49:05;;;;;;;92.03;39.47;;;;;3.10;100929.00;;;;10422584;28;20610;-76
2021/01/03 00:54:06;;;;;;;86.13;37.83;;;;;3.20;100925.00;;;;10455309;28;20229;-76
2021/01/03 00:59:08;;;;;;;94.77;40.60;;;;;3.20;100930.00;;;;10404650;28;20202;-76
2021/01/03 01:04:09;;;;;;;93.03;38.83;;;;;3.20;100927.00;;;;10438678;28;20218;-76
2021/01/03 01:09:10;;;;;;;91.90;38.17;;;;;3.20;100926.00;;;;10421635;28;20194;-76
2021/01/03 01:14:12;;;;;;;93.97;40.17;;;;;3.20;100938.00;;;;10437579;28;20911;-76
2021/01/03 01:19:14;;;;;;;91.57;41.10;;;;;3.20;100940.00;;;;10438606;28;20194;-76
2021/01/03 01:24:15;;;;;;;86.13;38.73;;;;;3.20;100941.00;;;;10405124;28;20634;-76
2021/01/03 01:29:17;;;;;;;96.97;39.37;;;;;3.20;100940.00;;;;10421050;28;20221;-76
2021/01/03 01:34:18;;;;;;;103.20;39.50;;;;;3.20;100945.00;;;;10420902;28;20242;-76
2021/01/03 01:39:19;;;;;;;98.40;41.50;;;;;3.20;100951.00;;;;10438317;28;20545;-76
2021/01/03 01:44:21;;;;;;;93.13;40.50;;;;;3.20;100948.00;;;;10437864;28;20554;-76
2021/01/03 01:49:22;;;;;;;92.17;39.37;;;;;3.20;100944.00;;;;10455514;28;20237;-76
2021/01/03 01:54:29;;;;;;;96.37;39.40;;;;;3.20;100947.00;;;;10420492;28;20293;-76
2021/01/03 01:59:30;;;;;;;112.13;41.37;;;;;3.30;100947.00;;;;10454792;28;20202;-76
2021/01/03 02:04:35;;;;;;;108.33;40.60;;;;;3.30;100942.00;;;;10420443;28;20194;-76
2021/01/03 02:09:54;;;;;;;118.57;43.13;;;;;3.30;100954.00;;;;10436958;28;20194;-76
2021/01/03 02:14:56;;;;;;;113.40;42.70;;;;;3.30;100946.00;;;;10444149;28;20210;-76
2021/01/03 02:19:59;;;;;;;110.70;39.43;;;;;3.30;100949.00;;;;10444391;28;20221;-76
2021/01/03 02:25:11;;;;;;;110.30;39.80;;;;;3.30;100953.00;;;;10461203;28;20269;-76
2021/01/03 02:30:15;;;;;;;123.93;39.60;;;;;3.20;100941.00;;;;10443739;28;20194;-76
2021/01/03 02:35:19;;;;;;;131.80;41.00;;;;;3.20;100946.00;;;;10461806;28;20619;-76
2021/01/03 02:40:23;;;;;;;136.20;44.03;;;;;3.20;100953.00;;;;10443236;28;20653;-76
2021/01/03 02:45:30;;;;;;;150.83;43.47;;;;;3.20;100952.00;;;;10459562;28;20215;-76
2021/01/03 02:50:32;;;;;;;146.43;41.87;;;;;3.20;100953.00;;;;10426458;28;20196;-76
2021/01/03 02:55:33;;;;;;;136.77;41.43;;;;;3.20;100941.00;;;;10442795;28;20653;-76
2021/01/03 03:00:37;;;;;;;143.53;39.30;;;;;3.20;100940.00;;;;10460526;28;20225;-76
2021/01/03 03:05:38;;;;;;;142.23;39.00;;;;;3.20;100935.00;;;;10442926;28;20198;-76
2021/01/03 03:10:39;;;;;;;123.67;37.37;;;;;3.20;100934.00;;;;10425776;28;20212;-76
2021/01/03 03:15:41;;;;;;;130.63;38.53;;;;;3.20;100929.00;;;;10416864;28;20290;-76
2021/01/03 03:20:42;;;;;;;128.43;37.90;;;;;3.20;100936.00;;;;10400894;28;20217;-76
2021/01/03 03:25:44;;;;;;;133.27;35.13;;;;;3.20;100931.00;;;;10401400;28;20225;-76
2021/01/03 03:30:46;;;;;;;126.27;35.47;;;;;3.20;100925.00;;;;10417459;28;20215;-76
2021/01/03 03:35:47;;;;;;;148.93;38.63;;;;;3.10;100926.00;;;;10418335;28;20221;-76
2021/01/03 03:40:49;;;;;;;146.67;35.70;;;;;3.10;100933.00;;;;10418070;28;20190;-76
2021/01/03 03:45:50;;;;;;;154.17;36.37;;;;;3.10;100932.00;;;;10424046;28;20288;-76
2021/01/03 03:50:51;;;;;;;138.50;38.87;;;;;3.10;100924.00;;;;10424190;28;20677;-76
2021/01/03 03:55:53;;;;;;;165.93;39.93;;;;;3.10;100927.00;;;;10423686;28;20193;-76
2021/01/03 04:00:54;;;;;;;143.60;37.87;;;;;3.10;100926.00;;;;10457215;28;20198;-76
2021/01/03 04:05:55;;;;;;;170.63;42.13;;;;;3.10;100927.00;;;;10457476;28;20228;-76
2021/01/03 04:10:58;;;;;;;205.17;44.07;;;;;3.10;100920.00;;;;10457880;28;20249;-76
2021/01/03 04:15:59;;;;;;;201.37;40.57;;;;;3.10;100926.00;;;;10423771;28;20561;-76
2021/01/03 04:21:02;;;;;;;221.83;41.70;;;;;3.10;100930.00;;;;10423751;28;20190;-76
2021/01/03 04:26:04;;;;;;;239.23;44.57;;;;;3.10;100921.00;;;;10456258;28;20218;-76
2021/01/03 04:31:05;;;;;;;202.67;43.40;;;;;3.10;100935.00;;;;10456160;28;20230;-76
2021/01/03 04:36:06;;;;;;;174.00;40.30;;;;;3.10;100933.00;;;;10438773;28;20653;-76
2021/01/03 04:41:17;;;;;;;183.80;41.77;;;;;3.10;100936.00;;;;10438834;28;20741;-76
2021/01/03 04:46:21;;;;;;;161.83;38.17;;;;;3.10;100935.00;;;;10421947;28;20697;-76
2021/01/03 04:51:22;;;;;;;127.10;31.90;;;;;3.10;100931.00;;;;10421795;28;20210;-76
2021/01/03 04:56:35;;;;;;;126.80;35.57;;;;;3.10;100930.00;;;;10438586;28;20256;-76
2021/01/03 05:02:02;;;;;;;118.47;33.57;;;;;3.10;100933.00;;;;10438284;28;20261;-76
2021/01/03 05:07:15;;;;;;;124.10;33.83;;;;;3.10;100932.00;;;;10438532;28;20190;-76
2021/01/03 05:12:27;;;;;;;146.13;34.80;;;;;3.00;100936.00;;;;10421049;28;20300;-76
2021/01/03 05:17:29;;;;;;;136.53;34.53;;;;;3.00;100939.00;;;;10364489;28;20578;-76
2021/01/03 05:22:36;;;;;;;155.53;37.90;;;;;3.00;100935.00;;;;10396812;28;20982;-76
2021/01/03 05:27:37;;;;;;;128.07;36.40;;;;;3.00;100949.00;;;;10415047;28;20179;-76
2021/01/03 05:32:40;;;;;;;137.07;34.03;;;;;3.00;100946.00;;;;10380112;28;20496;-76
2021/01/03 05:37:43;;;;;;;124.17;33.40;;;;;3.00;100945.00;;;;10396441;28;20198;-76
2021/01/03 05:42:44;;;;;;;139.03;38.13;;;;;3.00;100943.00;;;;10398444;28;20203;-76
2021/01/03 05:47:56;;;;;;;110.07;32.77;;;;;2.90;100961.00;;;;10461053;28;20281;-76
2021/01/03 05:52:58;;;;;;;138.43;36.50;;;;;2.90;100961.00;;;;10445369;28;20242;-76
2021/01/03 05:58:41;;;;;;;133.33;37.07;;;;;3.00;100970.00;;;;10445204;28;20194;-76
2021/01/03 06:03:43;;;;;;;138.30;37.83;;;;;3.00;100965.00;;;;10444877;28;20205;-76
2021/01/03 06:08:47;;;;;;;126.60;35.63;;;;;3.00;100968.00;;;;10427917;28;20194;-76
2021/01/03 06:13:55;;;;;;;114.83;32.87;;;;;3.00;100972.00;;;;10384918;28;20302;-76
2021/01/03 06:19:16;;;;;;;112.20;32.20;;;;;3.10;100975.00;;;;10403541;28;20187;-76
2021/01/03 06:24:23;;;;;;;113.23;34.50;;;;;3.10;100968.00;;;;10404046;28;20242;-76
2021/01/03 06:29:38;;;;;;;109.97;35.57;;;;;3.10;100974.00;;;;10386498;28;20278;-76
2021/01/03 06:34:48;;;;;;;103.53;32.80;;;;;3.10;100972.00;;;;10419303;28;20234;-76
2021/01/03 06:40:06;;;;;;;110.17;34.50;;;;;3.00;100969.00;;;;10386264;28;20198;-76
2021/01/03 06:45:32;;;;;;;115.97;34.73;;;;;3.00;100970.00;;;;10440646;28;20267;-76
2021/01/03 06:50:59;;;;;;;116.10;33.20;;;;;3.00;100978.00;;;;10461205;28;20229;-76
2021/01/03 06:56:35;;;;;;;115.50;35.50;;;;;3.00;100977.00;;;;10458926;28;20244;-76
2021/01/03 07:01:40;;;;;;;102.93;34.67;;;;;3.00;100981.00;;;;10442761;28;20281;-76
2021/01/03 07:06:44;;;;;;;99.50;30.87;;;;;2.90;100983.00;;;;10443113;28;20549;-76
2021/01/03 07:11:59;;;;;;;115.27;35.20;;;;;3.00;100980.00;;;;10459462;28;20209;-76
2021/01/03 07:17:07;;;;;;;118.33;35.73;;;;;3.00;100986.00;;;;10426279;28;20530;-76
2021/01/03 07:22:13;;;;;;;123.60;35.47;;;;;3.00;100988.00;;;;10425047;28;20190;-76
2021/01/03 07:27:43;;;;;;;136.00;36.90;;;;;3.00;100985.00;;;;10425133;28;20190;-76
2021/01/03 07:32:57;;;;;;;126.60;38.27;;;;;3.00;100993.00;;;;10424818;28;20870;-76
2021/01/03 07:38:25;;;;;;;127.57;36.80;;;;;3.00;100995.00;;;;10408539;28;20649;-76
2021/01/03 07:43:27;;;;;;;115.50;35.67;;;;;3.00;100987.00;;;;10441727;28;20218;-76
2021/01/03 07:48:40;;;;;;;131.73;38.63;;;;;3.00;100995.00;;;;10452531;28;20194;-76
2021/01/03 07:53:41;;;;;;;117.57;37.00;;;;;3.00;100990.00;;;;10440507;28;20272;-76
2021/01/03 07:58:43;;;;;;;124.33;38.17;;;;;3.00;100989.00;;;;10441070;28;20197;-76
2021/01/03 08:03:44;;;;;;;120.30;36.47;;;;;3.00;100997.00;;;;10408057;28;20241;-76
2021/01/03 08:08:54;;;;;;;107.53;35.83;;;;;3.00;100999.00;;;;10406496;28;20190;-76
2021/01/03 08:14:01;;;;;;;109.27;35.50;;;;;3.00;101012.00;;;;10440576;28;20297;-76
2021/01/03 08:19:05;;;;;;;126.87;39.90;;;;;3.00;101017.00;;;;10457819;28;20190;-76
2021/01/03 08:24:12;;;;;;;114.07;35.07;;;;;3.10;101002.00;;;;10440165;28;20187;-76
2021/01/03 08:29:31;;;;;;;113.27;38.10;;;;;3.10;101016.00;;;;10423433;28;20201;-76
2021/01/03 08:34:36;;;;;;;116.30;37.80;;;;;3.10;101017.00;;;;10423191;28;20772;-76
2021/01/03 08:39:37;;;;;;;117.20;36.93;;;;;3.10;101016.00;;;;10456303;28;20201;-76
2021/01/03 08:44:46;;;;;;;116.73;38.43;;;;;3.20;101012.00;;;;10439020;28;20697;-76
2021/01/03 08:49:48;;;;;;;115.00;36.33;;;;;3.20;101022.00;;;;10439192;28;20252;-76
2021/01/03 08:55:02;;;;;;;112.27;34.57;;;;;3.20;101011.00;;;;10421948;28;20241;-76
2021/01/03 09:00:06;;;;;;;123.97;39.17;;;;;3.20;101028.00;;;;10438421;28;20202;-76
2021/01/03 09:05:08;;;;;;;121.57;37.57;;;;;3.20;101025.00;;;;10422131;28;20186;-76
2021/01/03 09:10:23;;;;;;;117.60;37.83;;;;;3.30;101026.00;;;;10438841;28;20765;-76
2021/01/03 09:15:25;;;;;;;106.27;37.63;;;;;3.30;101033.00;;;;10437656;28;20897;-76
2021/01/03 09:20:39;;;;;;;121.60;42.47;;;;;3.40;101031.00;;;;10454649;28;20194;-76
2021/01/03 09:25:41;;;;;;;117.07;40.00;;;;;3.50;101045.00;;;;10421418;28;20202;-76
2021/01/03 09:30:43;;;;;;;113.30;37.93;;;;;3.60;101044.00;;;;10437989;28;20259;-76
2021/01/03 09:36:02;;;;;;;113.87;39.77;;;;;3.70;101045.00;;;;10438154;28;20229;-76
2021/01/03 09:41:52;;;;;;;118.37;40.17;;;;;3.70;101038.00;;;;10437364;28;20201;-76
2021/01/03 09:47:01;;;;;;;109.20;38.13;;;;;3.80;101050.00;;;;10328337;28;20224;-76
2021/01/03 09:52:07;;;;;;;107.77;40.43;;;;;3.90;101052.00;;;;10434222;28;20728;-76
2021/01/03 09:57:19;;;;;;;119.50;41.03;;;;;4.00;101047.00;;;;10437116;28;20558;-76
2021/01/03 10:02:21;;;;;;;115.83;40.50;;;;;4.10;101045.00;;;;10454156;28;20186;-76
2021/01/03 10:07:26;;;;;;;103.60;38.90;;;;;4.10;101045.00;;;;10454017;28;20256;-76
2021/01/03 10:12:38;;;;;;;109.13;39.87;;;;;4.20;101040.00;;;;10436700;28;20689;-76
2021/01/03 10:17:52;;;;;;;100.67;38.07;;;;;4.30;101038.00;;;;10411656;28;20250;-76
2021/01/03 10:22:54;;;;;;;103.80;37.80;;;;;4.30;101040.00;;;;10413487;28;20215;-76
2021/01/03 10:28:05;;;;;;;103.50;39.57;;;;;4.40;101033.00;;;;10379152;28;20253;-76
2021/01/03 10:33:07;;;;;;;95.77;36.57;;;;;4.40;101038.00;;;;10366228;28;20253;-76
2021/01/03 10:38:09;;;;;;;87.37;36.23;;;;;4.40;101037.00;;;;10403050;28;20290;-76
2021/01/03 10:43:10;;;;;;;85.23;33.53;;;;;4.40;101040.00;;;;10425807;28;20288;-76
2021/01/03 10:48:12;;;;;;;85.37;33.90;;;;;4.50;101025.00;;;;10426676;28;20244;-76
2021/01/03 10:53:15;;;;;;;90.80;34.77;;;;;4.70;101022.00;;;;10443591;28;20202;-76
2021/01/03 10:58:16;;;;;;;87.80;35.23;;;;;4.80;101022.00;;;;10443351;28;20190;-76
2021/01/03 11:03:18;;;;;;;72.83;33.67;;;;;4.90;101016.00;;;;10426230;28;20245;-76
2021/01/03 11:08:19;;;;;;;64.70;31.53;;;;;5.00;101010.00;;;;10443161;28;20190;-76
2021/01/03 11:13:21;;;;;;;65.17;29.97;;;;;5.00;101005.00;;;;10426525;28;20283;-76
2021/01/03 11:18:23;;;;;;;58.00;27.83;;;;;4.90;101019.00;;;;10409204;28;20310;-76
2021/01/03 11:23:24;;;;;;;64.07;27.43;;;;;4.80;101006.00;;;;10442561;28;20194;-76
2021/01/03 11:28:25;;;;;;;58.90;27.73;;;;;4.70;101012.00;;;;10442370;28;20194;-76
2021/01/03 11:33:27;;;;;;;58.17;26.90;;;;;4.70;101004.00;;;;10458915;28;20292;-76
2021/01/03 11:38:28;;;;;;;46.60;24.73;;;;;4.70;101015.00;;;;10425495;28;20198;-76
2021/01/03 11:43:29;;;;;;;45.73;23.50;;;;;4.70;101004.00;;;;10458269;28;20206;-76
2021/01/03 11:48:31;;;;;;;49.73;24.10;;;;;4.70;101016.00;;;;10425099;28;20649;-76
2021/01/03 11:53:32;;;;;;;46.30;22.97;;;;;4.60;101002.00;;;;10440913;28;20202;-76
2021/01/03 11:58:34;;;;;;;40.03;21.70;;;;;4.50;101002.00;;;;10441105;28;20237;-76
2021/01/03 12:03:35;;;;;;;44.63;21.93;;;;;4.50;100999.00;;;;10441060;28;20186;-76
2021/01/03 12:08:37;;;;;;;46.07;20.83;;;;;4.50;100997.00;;;;10424137;28;20204;-76
2021/01/03 12:13:38;;;;;;;39.17;20.37;;;;;4.50;100992.00;;;;10457363;28;20697;-76
2021/01/03 12:18:40;;;;;;;31.23;18.17;;;;;4.40;100998.00;;;;10423323;28;20194;-76
2021/01/03 12:23:41;;;;;;;35.03;18.97;;;;;4.40;100989.00;;;;10456859;28;20297;-76
2021/01/03 12:28:43;;;;;;;31.57;17.63;;;;;4.30;100973.00;;;;10439887;28;20194;-76
2021/01/03 12:33:44;;;;;;;31.50;17.33;;;;;4.40;100984.00;;;;10438854;28;20697;-76
2021/01/03 12:38:45;;;;;;;31.73;17.77;;;;;4.40;100970.00;;;;10439671;28;20194;-76
2021/01/03 12:43:48;;;;;;;28.00;16.50;;;;;4.40;100972.00;;;;10438908;28;20241;-76
2021/01/03 12:48:49;;;;;;;32.47;16.50;;;;;4.30;100978.00;;;;10455714;28;20182;-76
2021/01/03 12:53:52;;;;;;;29.37;16.30;;;;;4.30;100991.00;;;;10438458;28;20233;-76
2021/01/03 12:58:59;;;;;;;29.37;16.07;;;;;4.40;100984.00;;;;10455857;28;20225;-76
2021/01/03 13:04:04;;;;;;;29.67;15.73;;;;;4.30;100985.00;;;;10455548;28;20214;-76
2021/01/03 13:09:08;;;;;;;24.77;15.13;;;;;4.20;100985.00;;;;10438253;28;20224;-76
2021/01/03 13:14:10;;;;;;;23.57;13.63;;;;;4.20;100992.00;;;;10421370;28;20214;-76
2021/01/03 13:19:13;;;;;;;23.53;13.83;;;;;4.20;100992.00;;;;10422076;28;20205;-76
2021/01/03 13:24:14;;;;;;;25.40;14.47;;;;;4.10;100995.00;;;;10454823;28;20249;-76
2021/01/03 13:29:15;;;;;;;23.83;13.80;;;;;4.10;100994.00;;;;10420970;28;20190;-76
2021/01/03 13:34:17;;;;;;;25.90;15.20;;;;;4.10;100996.00;;;;10421412;28;20546;-76
2021/01/03 13:39:18;;;;;;;23.50;15.07;;;;;4.00;100996.00;;;;10437451;28;20249;-76
2021/01/03 13:44:20;;;;;;;25.60;13.83;;;;;4.00;100999.00;;;;10455711;28;20214;-76
2021/01/03 13:49:21;;;;;;;28.03;14.27;;;;;3.90;100998.00;;;;10454264;28;20191;-76
2021/01/03 13:54:23;;;;;;;20.87;12.80;;;;;3.90;100993.00;;;;10455556;28;20207;-76
2021/01/03 13:59:24;;;;;;;21.90;13.23;;;;;3.90;100992.00;;;;10437171;28;20203;-76
2021/01/03 14:04:26;;;;;;;19.83;12.40;;;;;3.90;100996.00;;;;10453535;28;20232;-76
2021/01/03 14:09:27;;;;;;;22.30;11.97;;;;;3.90;101002.00;;;;10444783;28;20595;-76
2021/01/03 14:14:28;;;;;;;19.73;12.87;;;;;3.90;101006.00;;;;10444978;28;20251;-76
2021/01/03 14:19:32;;;;;;;18.67;12.67;;;;;3.90;101004.00;;;;10444312;28;20190;-76
2021/01/03 14:24:34;;;;;;;18.23;12.07;;;;;3.90;101017.00;;;;10462567;28;20221;-76
2021/01/03 14:29:36;;;;;;;16.37;10.50;;;;;3.90;101004.00;;;;10460299;28;20233;-76
2021/01/03 14:34:48;;;;;;;16.70;11.03;;;;;3.90;101009.00;;;;10444422;28;20207;-76
2021/01/03 14:39:53;;;;;;;16.73;11.23;;;;;3.90;101004.00;;;;10461060;28;20190;-76
2021/01/03 14:45:04;;;;;;;17.20;9.83;;;;;3.80;101016.00;;;;10443197;28;20224;-76
2021/01/03 14:50:25;;;;;;;20.03;11.73;;;;;3.70;101018.00;;;;10443118;28;20194;-76
2021/01/03 14:55:41;;;;;;;17.00;11.00;;;;;3.70;101012.00;;;;10459767;28;20213;-76
2021/01/03 15:00:47;;;;;;;17.37;11.13;;;;;3.60;101015.00;;;;10442891;28;20248;-76
2021/01/03 15:05:57;;;;;;;14.80;9.47;;;;;3.60;101009.00;;;;10442301;28;20626;-76
2021/01/03 15:10:58;;;;;;;14.97;10.07;;;;;3.60;101012.00;;;;10459164;28;20248;-76
2021/01/03 15:16:08;;;;;;;14.00;9.60;;;;;3.60;101017.00;;;;10442503;28;20264;-76
2021/01/03 15:21:10;;;;;;;12.77;9.27;;;;;3.50;101017.00;;;;10397125;28;20199;-76
2021/01/03 15:26:28;;;;;;;15.57;10.40;;;;;3.50;101016.00;;;;10384610;28;20191;-76
2021/01/03 15:31:37;;;;;;;12.57;8.77;;;;;3.40;101015.00;;;;10400854;28;20245;-77
2021/01/03 15:36:39;;;;;;;13.23;9.67;;;;;3.40;101020.00;;;;10417424;28;20190;-76
2021/01/03 15:41:55;;;;;;;14.60;10.10;;;;;3.40;101012.00;;;;10383193;28;20187;-77
2021/01/03 15:47:09;;;;;;;14.17;9.50;;;;;3.30;101016.00;;;;10399414;28;20662;-77
2021/01/03 15:52:11;;;;;;;20.07;11.27;;;;;3.30;101019.00;;;;10399865;28;20257;-77
2021/01/03 15:57:12;;;;;;;14.80;9.17;;;;;3.30;101015.00;;;;10366646;28;20199;-77
2021/01/03 16:02:14;;;;;;;13.13;9.87;;;;;3.30;101023.00;;;;10382397;28;20558;-77
2021/01/03 16:07:15;;;;;;;16.30;10.90;;;;;3.30;101028.00;;;;10398797;28;20654;-77
2021/01/03 16:12:16;;;;;;;16.87;10.73;;;;;3.30;101028.00;;;;10416844;28;20261;-77
2021/01/03 16:17:18;;;;;;;14.47;9.37;;;;;3.30;101030.00;;;;10420790;28;20731;-77
2021/01/03 16:22:46;;;;;;;15.40;11.77;;;;;3.20;101020.00;;;;10439237;28;20190;-77
2021/01/03 16:27:50;;;;;;;12.67;9.63;;;;;3.30;101035.00;;;;10406092;28;20190;-77
2021/01/03 16:33:03;;;;;;;16.87;10.87;;;;;3.20;101033.00;;;;10404998;28;20237;-76
2021/01/03 16:38:44;;;;;;;15.37;10.37;;;;;3.20;101036.00;;;;10439483;28;20190;-77
2021/01/03 16:43:54;;;;;;;16.83;10.63;;;;;3.20;101037.00;;;;10403941;28;20214;-76
2021/01/03 16:49:20;;;;;;;13.23;10.40;;;;;3.20;101034.00;;;;10415521;28;20198;-76
2021/01/03 16:54:26;;;;;;;16.50;10.43;;;;;3.20;101038.00;;;;10397018;28;20260;-76
2021/01/03 16:59:38;;;;;;;13.00;10.10;;;;;3.20;101038.00;;;;10401418;28;20297;-77
2021/01/03 17:04:39;;;;;;;13.97;9.50;;;;;3.20;101031.00;;;;10421274;28;20194;-76
2021/01/03 17:09:59;;;;;;;13.80;9.80;;;;;3.20;101035.00;;;;10421020;28;20349;-77
2021/01/03 17:15:24;;;;;;;14.67;9.53;;;;;3.20;101043.00;;;;10436771;28;20885;-77
2021/01/03 17:20:50;;;;;;;16.43;9.47;;;;;3.20;101045.00;;;;10437222;28;20217;-77
2021/01/03 17:26:32;;;;;;;15.67;9.50;;;;;3.20;101053.00;;;;10418457;28;20211;-76
2021/01/03 17:31:46;;;;;;;15.63;9.27;;;;;3.20;101061.00;;;;10415488;28;20238;-77
2021/01/03 17:37:04;;;;;;;15.97;9.37;;;;;3.20;101056.00;;;;10450595;28;20616;-77
2021/01/03 17:42:09;;;;;;;15.90;9.17;;;;;3.20;101061.00;;;;10430313;28;20234;-77
2021/01/03 17:47:16;;;;;;;13.13;8.93;;;;;3.20;101068.00;;;;10454662;28;20190;-77
2021/01/03 17:52:21;;;;;;;16.00;10.20;;;;;3.20;101070.00;;;;10459180;28;21040;-77
2021/01/03 17:57:26;;;;;;;14.53;9.53;;;;;3.20;101073.00;;;;10438439;28;20186;-77
2021/01/03 18:02:27;;;;;;;16.63;10.70;;;;;3.20;101072.00;;;;10409295;28;20654;-77
2021/01/03 18:07:29;;;;;;;16.30;10.23;;;;;3.20;101076.00;;;;10412819;28;20727;-77
2021/01/03 18:12:32;;;;;;;14.13;8.90;;;;;3.20;101066.00;;;;10439560;28;20257;-77
2021/01/03 18:17:34;;;;;;;17.57;11.10;;;;;3.20;101070.00;;;;10451409;28;20248;-77
2021/01/03 18:22:35;;;;;;;19.80;11.20;;;;;3.20;101078.00;;;;10458807;28;20186;-77
2021/01/03 18:27:38;;;;;;;23.47;11.47;;;;;3.20;101075.00;;;;10453441;28;20230;-77
2021/01/03 18:32:40;;;;;;;15.63;10.27;;;;;3.20;101073.00;;;;10380574;28;20211;-77
2021/01/03 18:37:49;;;;;;;17.63;10.10;;;;;3.20;101084.00;;;;10457494;28;20208;-77
2021/01/03 18:42:50;;;;;;;18.47;11.03;;;;;3.20;101083.00;;;;10434801;28;20242;-77
2021/01/03 18:47:51;;;;;;;15.83;11.13;;;;;3.30;101087.00;;;;10422703;28;20223;-77
2021/01/03 18:52:53;;;;;;;20.63;13.40;;;;;3.20;101086.00;;;;10425445;28;20302;-77
2021/01/03 18:57:54;;;;;;;21.33;12.70;;;;;3.20;101084.00;;;;10441274;28;20194;-77
2021/01/03 19:02:55;;;;;;;20.63;11.73;;;;;3.20;101088.00;;;;10432080;28;20205;-77
2021/01/03 19:07:57;;;;;;;18.93;11.03;;;;;3.20;101092.00;;;;10371407;28;20661;-77
2021/01/03 19:12:58;;;;;;;18.90;12.43;;;;;3.20;101087.00;;;;10438450;28;20808;-77
2021/01/03 19:17:59;;;;;;;18.33;11.27;;;;;3.20;101085.00;;;;10424209;28;20189;-77
2021/01/03 19:23:03;;;;;;;18.47;10.83;;;;;3.20;101103.00;;;;10407899;28;20183;-77
2021/01/03 19:28:05;;;;;;;16.80;10.70;;;;;3.20;101107.00;;;;10375267;28;20195;-77
2021/01/03 19:33:06;;;;;;;16.50;10.83;;;;;3.20;101101.00;;;;10456297;28;20218;-77
2021/01/03 19:38:07;;;;;;;15.97;11.17;;;;;3.20;101102.00;;;;10401455;28;20234;-77
2021/01/03 19:43:09;;;;;;;19.33;10.97;;;;;3.20;101100.00;;;;10424591;28;20609;-77
2021/01/03 19:48:11;;;;;;;15.20;10.20;;;;;3.20;101102.00;;;;10428880;28;20222;-77
2021/01/03 19:53:12;;;;;;;18.80;10.70;;;;;3.20;101106.00;;;;10398511;28;20203;-77
2021/01/03 19:58:13;;;;;;;17.83;11.43;;;;;3.20;101102.00;;;;10457806;28;20233;-77
2021/01/03 20:03:16;;;;;;;16.00;10.53;;;;;3.20;101103.00;;;;10421973;28;20235;-77
2021/01/03 20:08:21;;;;;;;14.60;10.60;;;;;3.20;101092.00;;;;10382115;28;20191;-77
2021/01/03 20:13:23;;;;;;;15.23;10.63;;;;;3.20;101100.00;;;;10404864;28;20245;-77
2021/01/03 20:18:25;;;;;;;15.30;10.07;;;;;3.20;101102.00;;;;10436453;28;21018;-77
2021/01/03 20:23:28;;;;;;;15.10;10.10;;;;;3.20;101100.00;;;;10381668;28;20195;-77
2021/01/03 20:28:29;;;;;;;14.23;9.73;;;;;3.20;101112.00;;;;10424070;28;20194;-77
2021/01/03 20:33:31;;;;;;;13.83;10.37;;;;;3.10;101105.00;;;;10446395;28;20206;-77
2021/01/03 20:38:33;;;;;;;16.57;9.10;;;;;3.10;101093.00;;;;10432236;28;20206;-77
2021/01/03 20:43:34;;;;;;;12.57;8.87;;;;;3.10;101105.00;;;;10405140;28;20225;-77
2021/01/03 20:48:36;;;;;;;14.87;9.57;;;;;3.10;101115.00;;;;10482406;28;20808;-77
2021/01/03 20:53:37;;;;;;;15.23;10.13;;;;;3.00;101113.00;;;;10414074;28;20215;-77
2021/01/03 20:58:39;;;;;;;15.37;10.43;;;;;3.00;101118.00;;;;10410058;28;20187;-78
2021/01/03 21:03:40;;;;;;;14.33;10.07;;;;;2.90;101119.00;;;;10395328;28;20195;-77
2021/01/03 21:08:42;;;;;;;16.40;10.83;;;;;2.80;101116.00;;;;10378137;28;20254;-77
2021/01/03 21:13:43;;;;;;;15.33;10.70;;;;;2.70;101111.00;;;;10421342;28;20220;-77
2021/01/03 21:18:45;;;;;;;14.40;10.37;;;;;2.70;101115.00;;;;10397968;28;20198;-77
2021/01/03 21:23:46;;;;;;;15.03;11.37;;;;;2.60;101111.00;;;;10454471;28;20236;-77
2021/01/03 21:28:49;;;;;;;15.93;11.77;;;;;2.60;101120.00;;;;10416366;28;20236;-77
2021/01/03 21:33:53;;;;;;;16.57;12.17;;;;;2.50;101119.00;;;;10415555;28;20202;-77
2021/01/03 21:38:55;;;;;;;18.83;12.50;;;;;2.50;101114.00;;;;10396281;28;20198;-78
2021/01/03 21:44:11;;;;;;;16.30;12.07;;;;;2.50;101106.00;;;;10450915;28;20226;-78
2021/01/03 21:49:16;;;;;;;16.93;11.83;;;;;2.50;101105.00;;;;10421605;28;20190;-78
2021/01/03 21:54:38;;;;;;;16.00;11.53;;;;;2.50;101103.00;;;;10419747;28;20630;-78
2021/01/03 21:59:52;;;;;;;21.00;12.70;;;;;2.50;101105.00;;;;10404750;28;20205;-77
2021/01/03 22:05:08;;;;;;;18.17;11.37;;;;;2.50;101107.00;;;;10379847;28;20191;-78
2021/01/03 22:10:39;;;;;;;16.43;11.63;;;;;2.50;101091.00;;;;10393592;28;20694;-78
2021/01/03 22:16:02;;;;;;;20.73;12.20;;;;;2.60;101094.00;;;;10420947;28;20202;-78
2021/01/03 22:21:13;;;;;;;17.93;12.70;;;;;2.60;101107.00;;;;10419680;28;20193;-78
2021/01/03 22:26:20;;;;;;;17.27;11.23;;;;;2.60;101095.00;;;;10436758;28;20273;-78
2021/01/03 22:31:42;;;;;;;18.30;12.17;;;;;2.60;101102.00;;;;10443820;28;20226;-77
2021/01/03 22:37:14;;;;;;;17.93;12.30;;;;;2.60;101088.00;;;;10460421;28;20182;-78
2021/01/03 22:42:52;;;;;;;17.30;12.60;;;;;2.60;101102.00;;;;10441026;28;20206;-77
2021/01/03 22:48:19;;;;;;;16.40;12.03;;;;;2.60;101090.00;;;;10402625;28;20218;-78
2021/01/03 22:53:38;;;;;;;19.50;12.17;;;;;2.60;101092.00;;;;10385495;28;20211;-78
2021/01/03 22:59:05;;;;;;;16.97;12.47;;;;;2.60;101088.00;;;;10438802;28;20202;-78
2021/01/03 23:04:38;;;;;;;16.13;12.63;;;;;2.60;101085.00;;;;10407970;28;20222;-78
2021/01/03 23:09:54;;;;;;;18.90;12.70;;;;;2.60;101083.00;;;;10438004;28;20236;-78
2021/01/03 23:15:06;;;;;;;17.03;12.43;;;;;2.60;101081.00;;;;10443238;28;20287;-77
2021/01/03 23:20:11;;;;;;;17.83;12.20;;;;;2.70;101083.00;;;;10426445;28;20214;-77
2021/01/03 23:25:38;;;;;;;17.60;12.63;;;;;2.70;101076.00;;;;10416927;28;20187;-77
2021/01/03 23:30:45;;;;;;;18.33;13.33;;;;;2.70;101079.00;;;;10420097;28;20201;-77
2021/01/03 23:35:52;;;;;;;18.93;13.57;;;;;2.70;101073.00;;;;10410893;28;20617;-77
2021/01/03 23:40:58;;;;;;;18.40;13.07;;;;;2.70;101068.00;;;;10400982;28;20602;-77
2021/01/03 23:46:11;;;;;;;19.77;13.20;;;;;2.70;101067.00;;;;10427923;28;20309;-76
2021/01/03 23:51:33;;;;;;;20.60;12.97;;;;;2.70;101065.00;;;;10383316;28;20242;-77
2021/01/03 23:56:57;;;;;;;17.10;12.30;;;;;2.70;101059.00;;;;10399493;28;20238;-77
